ADDS METAR Data INFO
IDs: Format: Raw Decoded Include TAF

Data at: 0923 UTC 13 Dec 2017

KNQA 130915Z AUTO 11003KT 10SM CLR M05/M06 A3008 RMK A01
KNQA 130855Z AUTO 00000KT 10SM CLR M04/M06 A3009 RMK A01
KNQA 130835Z AUTO 00000KT 10SM CLR M03/M05 A3010 RMK A01
KNQA 130815Z AUTO 00000KT 10SM CLR M03/M06 A3010 RMK A01
KNQA 130750Z 00000KT 10SM SKC M02/M06 A3011
KNQA 130650Z 18003KT 10SM SKC M03/M06 A3011
KNQA 130550Z 00000KT 10SM SKC M02/M04 A3013
KNQA 130450Z 00000KT 10SM SKC M01/M06 A3014
KNQA 130350Z 00000KT 10SM SKC 00/M07 A3015
KNQA 130250Z 22003KT 10SM SKC 01/M07 A3015
KNQA 130150Z 00000KT 10SM SKC 01/M07 A3016
KNQA 130050Z 00000KT 10SM SKC 03/M07 A3016
KNQA 122350Z 30005KT 10SM SKC 04/M09 A3015
KNQA 122250Z 33005KT 10SM FEW250 05/M10 A3015
KNQA 122150Z 33010KT 10SM SCT250 07/M08 A3015
KNQA 122050Z 33012KT 10SM SCT250 08/M07 A3016
KNQA 121950Z 31012KT 10SM SCT250 08/M04 A3016
KNQA 121850Z 31011KT 10SM FEW250 08/M04 A3018
KNQA 121750Z 34013G23KT 10SM SKC 08/M03 A3019
KNQA 121650Z 34013G23KT 10SM FEW050 07/M03 A3021
KNQA 121550Z 34014G21KT 10SM FEW050 07/M02 A3021
KNQA 121450Z 33013KT 10SM FEW050 06/M01 A3019
KNQA 121350Z 32008KT 10SM SCT050 06/00 A3016
KNQA 121250Z 32008KT 10SM BKN050 06/M00 A3013
KNQA 121150Z 31008KT 10SM BKN050 06/M00 A3010
KNQA 121130Z 31008KT 10SM BKN050 06/M00 A3009
KNQA 121115Z AUTO 31006KT 10SM SCT046 06/M00 A3008 RMK A01
KNQA 121055Z AUTO 31006KT 10SM FEW044 SCT050 06/M00 A3007 RMK A01
KNQA 121035Z AUTO 31005KT 10SM FEW044 OVC050 07/M00 A3007 RMK A01
KNQA 121015Z AUTO 32007KT 10SM BKN055 07/M00 A3006 RMK A01
KNQA 120955Z AUTO 32008G15KT 10SM BKN055 08/M00 A3005 RMK A01
KNQA 120935Z AUTO 32009KT 10SM OVC055 08/M00 A3005 RMK A01
KNQA 120915Z AUTO 34007KT 10SM BKN055 08/M01 A3005 RMK A01
KNQA 120855Z AUTO 32008KT 10SM BKN055 08/M01 A3004 RMK A01
KNQA 120835Z AUTO 31008KT 10SM SCT055 08/M01 A3004 RMK A01
KNQA 120815Z AUTO 32010KT 10SM CLR 08/M01 A3004 RMK A01
KNQA 120750Z 32008KT 10SM FEW150 09/M01 A3003
KNQA 120650Z 33011KT 10SM FEW200 10/M02 A3000
KNQA 120550Z 33007KT 10SM FEW200 10/M02 A2999
KNQA 120450Z 31003KT 10SM FEW200 09/M03 A2999
KNQA 120350Z 31003KT 10SM FEW200 11/M04 A2999
KNQA 120250Z 32010G15KT 10SM SKC 12/M04 A2998
KNQA 120150Z 26009KT 10SM SKC 13/00 A2994
KNQA 120050Z 23009KT 10SM SKC 14/00 A2990
KNQA 112350Z 21005KT 10SM FEW150 15/00 A2989
KNQA 112250Z 21007KT 10SM FEW250 17/00 A2990
KNQA 112150Z 21009KT 10SM FEW250 18/00 A2990